Time,TemperatureF,DewpointF,PressureIn,WindDirection,WindDirectionDegrees,WindSpeedMPH,WindSpeedGustMPH,Humidity,HourlyPrecipIn,Conditions,Clouds,dailyrainin,SoftwareType,DateUTC
2013-02-13 00:28:00,41.3,38.6,30.33,NW,309,1.0,2.0,90,0.00,,,0.00,Wunderground v.1.15,2013-02-13 08:28:00,
2013-02-13 00:58:00,40.3,38.2,30.33,WNW,300,0.0,5.0,92,0.00,,,0.00,Wunderground v.1.15,2013-02-13 08:58:00,
2013-02-13 01:28:00,40.0,38.1,30.32,NW,304,5.0,5.0,93,0.00,,,0.00,Wunderground v.1.15,2013-02-13 09:28:00,
2013-02-13 01:58:00,39.3,37.7,30.33,NW,304,2.0,2.0,94,0.00,,,0.00,Wunderground v.1.15,2013-02-13 09:58:00,
2013-02-13 02:28:00,38.5,36.7,30.33,NW,304,0.0,0.0,93,0.00,,,0.00,Wunderground v.1.15,2013-02-13 10:28:00,
2013-02-13 02:58:00,37.2,35.9,30.32,NW,304,0.0,0.0,95,0.00,,,0.00,Wunderground v.1.15,2013-02-13 10:58:00,
2013-02-13 03:28:00,36.4,35.1,30.31,NW,304,0.0,0.0,95,0.00,,,0.00,Wunderground v.1.15,2013-02-13 11:28:00,
2013-02-13 03:58:00,35.2,33.9,30.32,NW,304,0.0,0.0,95,0.00,,,0.00,Wunderground v.1.15,2013-02-13 11:58:00,
2013-02-13 04:28:00,35.9,35.1,30.31,NW,304,0.0,0.0,97,0.00,,,0.00,Wunderground v.1.15,2013-02-13 12:28:00,
2013-02-13 04:58:00,35.6,34.8,30.31,WNW,295,3.0,3.0,97,0.00,,,0.00,Wunderground v.1.15,2013-02-13 12:58:00,
2013-02-13 05:28:00,35.3,34.5,30.32,WNW,302,3.0,4.0,97,0.00,,,0.00,Wunderground v.1.15,2013-02-13 13:28:00,
2013-02-13 05:58:00,35.0,34.2,30.31,WNW,290,4.0,4.0,97,0.00,,,0.00,Wunderground v.1.15,2013-02-13 13:58:00,
2013-02-13 06:28:00,34.4,33.6,30.32,WNW,292,1.0,3.0,97,0.00,,,0.00,Wunderground v.1.15,2013-02-13 14:28:00,
2013-02-13 06:58:00,34.5,33.7,30.32,NW,307,4.0,4.0,97,0.00,,,0.00,Wunderground v.1.15,2013-02-13 14:58:00,
2013-02-13 07:28:00,34.5,33.7,30.33,WNW,302,2.0,2.0,97,0.00,,,0.00,Wunderground v.1.15,2013-02-13 15:28:00,
2013-02-13 07:58:00,36.0,35.2,30.33,WNW,286,4.0,4.0,97,0.00,,,0.00,Wunderground v.1.15,2013-02-13 15:58:00,
2013-02-13 08:28:00,38.6,37.3,30.34,WNW,290,1.0,1.0,95,0.00,,,0.00,Wunderground v.1.15,2013-02-13 16:28:00,
2013-02-13 08:58:00,42.6,39.0,30.34,SE,132,1.0,1.0,87,0.00,,,0.00,Wunderground v.1.15,2013-02-13 16:58:00,
2013-02-13 09:28:00,45.5,40.6,30.34,SE,132,1.0,2.0,83,0.00,,,0.00,Wunderground v.1.15,2013-02-13 17:28:00,
2013-02-13 09:58:00,48.0,42.1,30.34,SE,129,1.0,1.0,80,0.00,,,0.00,Wunderground v.1.15,2013-02-13 17:58:00,
2013-02-13 10:28:00,50.8,43.2,30.34,SE,127,1.0,1.0,75,0.00,,,0.00,Wunderground v.1.15,2013-02-13 18:28:00,
2013-02-13 10:58:00,52.1,43.7,30.33,SE,130,2.0,5.0,73,0.00,,,0.00,Wunderground v.1.15,2013-02-13 18:58:00,
2013-02-13 11:28:00,53.2,44.0,30.32,ESE,113,2.0,2.0,71,0.00,,,0.00,Wunderground v.1.15,2013-02-13 19:28:00,
2013-02-13 11:58:00,55.4,45.0,30.31,SE,142,1.0,5.0,68,0.00,,,0.00,Wunderground v.1.15,2013-02-13 19:58:00,
2013-02-13 12:28:00,57.0,44.9,30.29,South,180,2.0,2.0,64,0.00,,,0.00,Wunderground v.1.15,2013-02-13 20:28:00,
2013-02-13 12:58:00,57.9,45.0,30.28,SSE,156,2.0,2.0,62,0.00,,,0.00,Wunderground v.1.15,2013-02-13 20:58:00,
2013-02-13 13:28:00,59.2,44.9,30.26,South,188,4.0,6.0,59,0.00,,,0.00,Wunderground v.1.15,2013-02-13 21:28:00,
2013-02-13 13:58:00,59.9,44.6,30.24,SE,140,3.0,3.0,57,0.00,,,0.00,Wunderground v.1.15,2013-02-13 21:58:00,
2013-02-13 14:28:00,60.6,44.8,30.24,SSE,168,2.0,5.0,56,0.00,,,0.00,Wunderground v.1.15,2013-02-13 22:28:00,
2013-02-13 14:58:00,61.2,40.8,30.23,West,271,7.0,7.0,47,0.00,,,0.00,Wunderground v.1.15,2013-02-13 22:58:00,
2013-02-13 15:28:00,61.1,41.8,30.23,WNW,293,6.0,7.0,49,0.00,,,0.00,Wunderground v.1.15,2013-02-13 23:28:00,
2013-02-13 15:58:00,59.9,41.7,30.22,NNW,330,9.0,9.0,51,0.00,,,0.00,Wunderground v.1.15,2013-02-13 23:58:00,
2013-02-13 16:28:00,59.1,43.4,30.22,NW,324,7.0,7.0,56,0.00,,,0.00,Wunderground v.1.15,2013-02-14 00:28:00,
2013-02-13 16:58:00,56.8,43.9,30.21,WNW,296,5.0,5.0,62,0.00,,,0.00,Wunderground v.1.15,2013-02-14 00:58:00,
2013-02-13 17:28:00,54.3,43.2,30.21,NW,304,3.0,4.0,66,0.00,,,0.00,Wunderground v.1.15,2013-02-14 01:28:00,
2013-02-13 17:58:00,50.8,42.5,30.21,WNW,300,7.0,7.0,73,0.00,,,0.00,Wunderground v.1.15,2013-02-14 01:58:00,
2013-02-13 18:28:00,49.5,41.9,30.21,WNW,294,3.0,3.0,75,0.00,,,0.00,Wunderground v.1.15,2013-02-14 02:28:00,
2013-02-13 18:58:00,47.6,41.4,30.21,SE,125,0.0,0.0,79,0.00,,,0.00,Wunderground v.1.15,2013-02-14 02:58:00,
2013-02-13 19:28:00,46.7,41.8,30.21,WNW,294,2.0,4.0,83,0.00,,,0.00,Wunderground v.1.15,2013-02-14 03:28:00,
2013-02-13 19:58:00,45.3,41.7,30.22,NW,307,2.0,2.0,87,0.00,,,0.00,Wunderground v.1.15,2013-02-14 03:58:00,
2013-02-13 20:28:00,44.6,41.6,30.22,WNW,296,2.0,2.0,89,0.00,,,0.00,Wunderground v.1.15,2013-02-14 04:28:00,
2013-02-13 20:58:00,43.3,40.8,30.22,WNW,302,2.0,2.0,91,0.00,,,0.00,Wunderground v.1.15,2013-02-14 04:58:00,
2013-02-13 21:28:00,42.2,40.3,30.22,WNW,303,3.0,5.0,93,0.00,,,0.00,Wunderground v.1.15,2013-02-14 05:28:00,
2013-02-13 21:58:00,41.9,40.3,30.23,WNW,300,3.0,6.0,94,0.00,,,0.00,Wunderground v.1.15,2013-02-14 05:58:00,
2013-02-13 22:28:00,40.7,39.4,30.23,WNW,302,3.0,3.0,95,0.00,,,0.00,Wunderground v.1.15,2013-02-14 06:28:00,
2013-02-13 22:58:00,40.2,39.2,30.23,WNW,301,4.0,5.0,96,0.00,,,0.00,Wunderground v.1.15,2013-02-14 06:58:00,
2013-02-13 23:28:00,39.8,38.8,30.23,WNW,299,3.0,4.0,96,0.00,,,0.00,Wunderground v.1.15,2013-02-14 07:28:00,
2013-02-13 23:58:00,39.1,38.3,30.22,WNW,303,4.0,5.0,97,0.00,,,0.00,Wunderground v.1.15,2013-02-14 07:58:00,